• Join FlightAware (Why Join?)
  • Login
  • US Flag 
11:25PM EST


 

Airport Tracker/Info


-or-


 

Live Flight TrackerFlight Track Log ✈ NKS200 ✈ 28-Jun-2013 ✈ KIAH - KORD

Flight Track Log - Related Links

Times and Time Zones

All times are in EDT time to prevent confusion due to time zone crossing. See the NKS200 flight status page for this flight to view local times or setup timezone preferences in your user account.

Time Position Orientation Groundspeed Altitude Reporting Facility
EDT Latitude Longitude Course Direction KTS MPH feet Rate Location/Type
08:46AM 29.9567 -95.3433 309° West 166 191 800  Level FlightAware ADS-B
08:46AM 29.9530 -95.3431 177° South 164 189 1,000 2,100 Climbing FlightAware ADS-B
08:47AM 29.9464 -95.3457 199° South 159 183 1,300 1,380 Climbing FlightAware ADS-B
08:47AM 29.9426 -95.3498 223° Southwest 163 188 1,400 960 Climbing FlightAware ADS-B
08:47AM 29.9409 -95.3534 241° Southwest 168 193 1,500 1,200 Climbing FlightAware ADS-B
08:47AM 29.9398 -95.3628 262° West 180 207 1,700 1,260 Climbing FlightAware ADS-B
08:47AM 29.9405 -95.3664 283° West 187 215 1,800 1,080 Climbing FlightAware ADS-B
08:47AM 29.9465 -95.3778 301° West 213 245 2,000 1,020 Climbing FlightAware ADS-B
08:47AM 29.9503 -95.3813 321° Northwest 227 261 2,100 1,500 Climbing FlightAware ADS-B
08:47AM 29.9537 -95.3835 331° Northwest 237 273 2,200 840 Climbing FlightAware ADS-B
08:47AM 29.9571 -95.3852 337° Northwest 244 281 2,200 720 Level FlightAware ADS-B
08:48AM 29.9620 -95.3868 344° North 253 291 2,300 1,800 Climbing FlightAware ADS-B
08:48AM 29.9686 -95.3878 353° North 263 303 2,500 1,980 Climbing FlightAware ADS-B
08:48AM 29.9806 -95.3890 355° North 276 318 2,800 2,460 Climbing FlightAware ADS-B
08:48AM 29.9998 -95.3901 357° North 274 315 3,500 2,160 Climbing FlightAware ADS-B
08:48AM 30.0192 -95.3915 356° North 276 318 3,900 780 Climbing FlightAware ADS-B
08:49AM 30.0383 -95.3934 355° North 276 318 3,900 180 Level FlightAware ADS-B
08:49AM 30.0578 -95.3956 354° North 277 319 4,000 180 Climbing FlightAware ADS-B
08:49AM 30.0802 -95.3981 354° North 278 320 4,000  Level FlightAware ADS-B
08:49AM 30.1004 -95.4004 354° North 278 320 4,000 720 Level FlightAware ADS-B
08:50AM 30.1415 -95.4051 354° North 279 321 4,600 2,460 Climbing FlightAware ADS-B
08:51AM 30.2164 -95.4155 353° North 284 327 7,700 3,180 Climbing FlightAware ADS-B
08:51AM 30.2237 -95.4173 348° North 283 326 8,000 2,040 Climbing FlightAware ADS-B
08:54AM 30.4298 -95.5709 326° Northwest 366 421 13,600 2,040 Climbing FlightAware ADS-B
08:54AM 30.4727 -95.6037 327° Northwest 372 428 14,700 2,100 Climbing FlightAware ADS-B
08:55AM 30.5167 -95.6374 327° Northwest 380 437 15,700 1,680 Climbing FlightAware ADS-B
08:55AM 30.5459 -95.6573 331° Northwest 390 449 16,100 1,980 Climbing FlightAware ADS-B
08:56AM 30.6951 -95.7370 335° Northwest 391 450 19,400 2,040 Climbing FlightAware ADS-B
08:57AM 30.7944 -95.7902 335° Northwest 392 451 21,400 1,560 Climbing FlightAware ADS-B
09:00AM 31.0050 -95.9034 335° Northwest 418 481 24,200 1,200 Climbing FlightAware ADS-B
09:02AM 31.2345 -96.0104 342° North 442 509 26,600 1,140 Climbing FlightAware ADS-B
09:03AM 31.3553 -96.0574 342° North 446 513 27,900 1,140 Climbing FlightAware ADS-B
09:03AM 31.4241 -96.0842 342° North 452 520 28,500 900 Climbing FlightAware ADS-B
09:04AM 31.4987 -96.1133 342° North 461 531 29,000 960 Climbing FlightAware ADS-B
09:05AM 31.6429 -96.1696 342° North 464 534 30,300 1,320 Climbing FlightAware ADS-B
09:05AM 31.6831 -96.1802 347° North 453 521 31,000 1,500 Climbing FlightAware ADS-B
09:06AM 31.7594 -96.1766 North 452 520 31,700 1,140 Climbing FlightAware ADS-B
09:06AM 31.8260 -96.1714 North 452 520 32,300 1,200 Climbing FlightAware ADS-B
09:07AM 31.8909 -96.1667 North 448 516 33,000 1,080 Climbing FlightAware ADS-B
09:08AM 31.9622 -96.1611 North 450 518 33,500 1,080 Climbing FlightAware ADS-B
09:08AM 32.0275 -96.1562 North 446 513 34,200 1,200 Climbing FlightAware ADS-B
09:09AM 32.0894 -96.1514 North 444 511 34,800 720 Climbing FlightAware ADS-B
09:09AM 32.1546 -96.1462 North 446 513 35,000 120 Climbing FlightAware ADS-B
09:10AM 32.2586 -96.1380 North 441 507 35,000  Level FlightAware ADS-B
09:11AM 32.3520 -96.1307 North 444 511 35,000  Level FlightAware ADS-B
09:12AM 32.4796 -96.1214 North 432 497 35,000  Level FlightAware ADS-B
09:13AM 32.6060 -96.1117 North 431 496 35,000  Level FlightAware ADS-B
09:14AM 32.7095 -96.1036 North 432 497 35,000  Level FlightAware ADS-B
09:14AM 32.7767 -96.0985 North 444 511 35,000  Level FlightAware ADS-B
09:15AM 32.9140 -96.0880 North 436 502 35,000  Level FlightAware
09:16AM 33.0146 -96.0801 North 448 516 35,000 60 Level FlightAware ADS-B
09:17AM 33.0830 -96.0750 North 448 516 35,100  Climbing FlightAware
09:18AM 33.1720 -96.0680 North 445 512 35,000 -120 Descending FlightAware
09:18AM 33.2620 -96.0610 North 437 503 35,000  Level FlightAware
09:19AM 33.3430 -96.0550 North 439 505 35,000  Level FlightAware
09:20AM 33.4298 -96.0478 North 440 506 35,000  Level FlightAware ADS-B
09:21AM 33.5380 -96.0400 North 436 502 35,000 -120 Level FlightAware
09:21AM 33.6250 -96.0330 North 439 505 34,900  Descending FlightAware
09:22AM 33.7170 -96.0250 North 440 506 35,000 60 Climbing FlightAware
09:23AM 33.7880 -96.0040 14° North 439 505 35,000  Level FlightAware
09:23AM 33.8780 -95.9590 23° Northeast 442 509 35,000  Level FlightAware
09:24AM 33.9540 -95.9220 22° Northeast 444 511 35,000  Level FlightAware
09:25AM 34.0370 -95.8810 22° Northeast 446 513 35,000  Level FlightAware
09:25AM 34.1070 -95.8460 22° Northeast 446 513 35,000  Level FlightAware
09:26AM 34.1830 -95.8080 22° Northeast 445 512 35,000  Level FlightAware
09:27AM 34.2790 -95.7600 22° Northeast 445 512 35,000  Level FlightAware
09:28AM 34.3530 -95.7240 22° Northeast 443 510 35,000  Level FlightAware
09:28AM 34.4310 -95.6850 22° Northeast 442 509 35,000  Level FlightAware
09:29AM 34.5110 -95.6440 23° Northeast 442 509 35,000  Level FlightAware
09:30AM 34.6140 -95.5930 22° Northeast 444 511 35,000  Level FlightAware
09:31AM 34.7790 -95.5090 23° Northeast 444 511 35,000  Level FlightAware
09:32AM 34.8310 -95.4830 22° Northeast 445 512 35,000  Level FlightAware
09:32AM 34.8950 -95.4520 22° Northeast 445 512 35,000  Level FlightAware
09:33AM 34.9720 -95.4130 23° Northeast 445 512 35,000  Level FlightAware
09:34AM 35.0310 -95.3840 22° Northeast 445 512 35,000  Level FlightAware
09:35AM 35.1810 -95.3060 23° Northeast 442 509 35,000  Level FlightAware
09:36AM 35.2940 -95.2500 22° Northeast 442 509 35,000  Level FlightAware
09:37AM 35.3710 -95.2120 22° Northeast 442 509 35,000  Level FlightAware
09:38AM 35.4290 -95.1830 22° Northeast 442 509 35,000  Level FlightAware
09:38AM 35.5240 -95.0470 49° Northeast 456 525 35,000  Level FlightAware
09:39AM 35.5990 -94.9790 36° Northeast 456 525 35,000  Level FlightAware
09:40AM 35.6810 -94.9040 37° Northeast 455 524 35,000  Level FlightAware
09:40AM 35.7500 -94.8410 37° Northeast 453 521 35,000  Level FlightAware
09:41AM 35.8330 -94.7650 37° Northeast 449 517 35,000  Level FlightAware
09:42AM 35.9050 -94.6990 37° Northeast 448 516 35,000  Level FlightAware
09:43AM 35.9680 -94.6420 36° Northeast 448 516 35,000  Level FlightAware
09:43AM 36.0380 -94.5770 37° Northeast 452 520 35,000  Level FlightAware
09:44AM 36.1110 -94.5090 37° Northeast 453 521 35,000  Level FlightAware
09:45AM 36.2378 -94.3922 37° Northeast 453 521 35,000  Level Kansas City Center
09:50AM 36.7620 -93.9010 37° Northeast 459 528 35,000  Level FlightAware
09:51AM 36.8410 -93.8260 37° Northeast 456 525 35,000  Level FlightAware
09:52AM 36.9080 -93.7630 37° Northeast 453 521 35,000  Level FlightAware
09:53AM 36.9880 -93.6870 37° Northeast 453 521 35,000 -120 Level FlightAware
09:53AM 37.0540 -93.6230 38° Northeast 453 521 34,900  Descending FlightAware
09:54AM 37.1280 -93.5530 37° Northeast 455 524 35,000  Climbing FlightAware
09:55AM 37.2390 -93.4470 37° Northeast 457 526 35,000  Level FlightAware
09:56AM 37.3050 -93.3840 37° Northeast 456 525 35,000  Level FlightAware
09:57AM 37.4130 -93.2810 37° Northeast 452 520 35,100  Climbing FlightAware
09:57AM 37.4840 -93.2170 36° Northeast 451 519 35,000 -120 Descending FlightAware
09:58AM 37.5520 -93.1540 36° Northeast 450 518 35,000  Level FlightAware
09:59AM 37.6150 -93.0950 37° Northeast 451 519 35,000  Level FlightAware
09:59AM 37.6590 -93.0540 36° Northeast 453 521 35,000  Level FlightAware
10:01AM 37.7836 -92.9378 36° Northeast 451 519 35,000  Level Kansas City Center
10:07AM 38.3710 -92.3880 36° Northeast 454 522 35,000  Level FlightAware
10:07AM 38.4260 -92.3370 36° Northeast 454 522 35,000  Level FlightAware
10:08AM 38.4960 -92.2720 36° Northeast 454 522 35,000  Level FlightAware
10:09AM 38.5490 -92.2230 36° Northeast 454 522 35,000  Level FlightAware
10:10AM 38.6150 -92.1610 36° Northeast 454 522 35,000  Level FlightAware
10:12AM 38.8120 -91.9780 36° Northeast 454 522 35,000  Level FlightAware
10:12AM 38.9590 -91.8190 40° Northeast 454 522 35,000  Level FlightAware
10:13AM 39.0600 -91.7210 37° Northeast 453 521 35,000  Level FlightAware
10:14AM 39.1320 -91.6510 37° Northeast 453 521 35,000 -240 Level FlightAware
10:15AM 39.2430 -91.5420 37° Northeast 451 519 34,600 -660 Descending FlightAware
10:16AM 39.3150 -91.4710 37° Northeast 454 522 33,900 -600 Descending FlightAware
10:16AM 39.3750 -91.4120 37° Northeast 454 522 33,800 -120 Descending FlightAware
10:17AM 39.4270 -91.3620 37° Northeast 454 522 33,800  Level FlightAware
10:18AM 39.4950 -91.2950 37° Northeast 454 522 33,800 -540 Level FlightAware
10:19AM 39.5980 -91.1910 38° Northeast 446 513 33,000 -600 Descending FlightAware
10:19AM 39.6530 -91.1370 37° Northeast 446 513 33,000  Level FlightAware
10:21AM 39.8300 -90.9590 38° Northeast 451 519 33,000  Level FlightAware
10:22AM 39.8880 -90.9020 37° Northeast 451 519 33,000  Level FlightAware
10:22AM 39.9700 -90.8170 38° Northeast 451 519 33,000  Level FlightAware
10:23AM 40.0300 -90.7570 37° Northeast 451 519 33,000  Level FlightAware
10:24AM 40.1030 -90.6830 38° Northeast 452 520 33,000  Level FlightAware
10:24AM 40.1700 -90.6150 38° Northeast 453 521 33,000  Level FlightAware
10:25AM 40.2500 -90.5330 38° Northeast 453 521 33,000  Level FlightAware
10:26AM 40.3550 -90.4260 38° Northeast 451 519 33,000  Level FlightAware
10:27AM 40.4710 -90.3070 38° Northeast 451 519 33,000  Level FlightAware
10:28AM 40.5400 -90.2360 38° Northeast 450 518 33,000  Level FlightAware
10:29AM 40.6060 -90.1680 38° Northeast 450 518 33,000  Level FlightAware
10:30AM 40.6790 -90.0920 38° Northeast 452 520 33,000 -240 Level FlightAware
10:31AM 40.7860 -89.9800 38° Northeast 454 522 32,600 -1,020 Descending FlightAware
10:31AM 40.8580 -89.9050 38° Northeast 452 520 31,200 -2,160 Descending FlightAware
10:32AM 40.9520 -89.8070 38° Northeast 441 507 29,000 -2,280 Descending FlightAware
10:33AM 41.0050 -89.7520 38° Northeast 434 499 27,700 -2,280 Descending FlightAware
10:34AM 41.0800 -89.6720 39° Northeast 427 491 25,900 -2,220 Descending FlightAware
10:34AM 41.1400 -89.5940 44° Northeast 428 493 24,300 -2,160 Descending FlightAware
10:36AM 41.2600 -89.3400 58° Northeast 431 496 20,400 -2,040 Descending FlightAware
10:37AM 41.2950 -89.2530 62° Northeast 421 484 19,200 -1,920 Descending FlightAware
10:37AM 41.3220 -89.1880 61° Northeast 415 478 18,300 -1,920 Descending FlightAware
10:38AM 41.3620 -89.0880 62° Northeast 406 467 16,900 -1,920 Descending FlightAware
10:39AM 41.4010 -88.9880 63° Northeast 386 444 15,500 -2,040 Descending FlightAware
10:39AM 41.4310 -88.9140 62° Northeast 386 444 14,200 -1,920 Descending FlightAware
10:41AM 41.4920 -88.7590 62° Northeast 373 429 12,000 -1,560 Descending FlightAware
10:41AM 41.5270 -88.6710 62° Northeast 379 436 11,200 -660 Descending FlightAware
10:42AM 41.5530 -88.6050 62° Northeast 396 456 11,200  Level FlightAware
10:42AM 41.5770 -88.5450 62° Northeast 396 456 11,200  Level FlightAware
10:43AM 41.6190 -88.4500 59° Northeast 389 448 11,200  Level FlightAware
10:44AM 41.6660 -88.3700 52° Northeast 390 449 11,200  Level FlightAware
10:44AM 41.7080 -88.2980 52° Northeast 389 448 11,200 -480 Level FlightAware
10:46AM 41.7850 -88.1660 52° Northeast 389 448 10,400 -540 Descending FlightAware
10:46AM 41.8290 -88.0880 53° Northeast 336 387 10,200 -420 Descending FlightAware
10:47AM 41.8550 -88.0420 53° Northeast 305 351 9,900 -1,320 Descending FlightAware
10:47AM 41.8760 -88.0040 53° Northeast 296 341 9,000 -2,340 Descending FlightAware
10:48AM 41.8830 -87.9830 66° East 305 351 8,400 -2,520 Descending FlightAware
10:48AM 41.8850 -87.9480 86° East 309 356 7,700 -1,560 Descending FlightAware
10:48AM 41.8840 -87.8940 91° East 283 326 7,200 -720 Descending FlightAware
10:49AM 41.8840 -87.8300 90° East 257 296 6,900 -1,320 Descending FlightAware
10:50AM 41.8840 -87.7280 90° East 258 297 4,900 -1,680 Descending FlightAware
10:51AM 41.9020 -87.6850 61° Northeast 225 259 4,200 -900 Descending FlightAware
10:51AM 41.9170 -87.6820 North 213 245 4,200 -300 Level FlightAware
10:51AM 41.9400 -87.6940 339° North 186 214 4,000 -660 Descending FlightAware
10:52AM 41.9490 -87.7200 295° West 166 191 3,600 -1,440 Descending FlightAware
10:52AM 41.9580 -87.7460 295° West 167 192 2,700 -1,320 Descending FlightAware
10:53AM 41.9670 -87.7740 293° West 179 206 2,400 -780 Descending FlightAware
10:53AM 41.9690 -87.7900 280° West 184 212 2,200 -900 Descending FlightAware
10:53AM 41.9690 -87.8200 270° West 155 178 1,800 -720 Descending FlightAware
10:54AM 41.9690 -87.8390 270° West 141 162 1,600 -720 Descending FlightAware
10:55AM 41.9690 -87.8860 270° West 135 155 900 -780 Descending FlightAware
10:59AM 41.9720 -87.8970 290° West 20 23 -240 Descending FlightAware
11:02AM 41.9651 -87.8966 301° West  Level FlightAware Approximate